sensor_id;sensor_type;location;lat;lon;timestamp;temperature;humidity
23122;DHT22;11730;51.248;22.534;2023-06-26T00:00:03;17.30;1.00
23122;DHT22;11730;51.248;22.534;2023-06-26T00:02:32;17.30;1.00
23122;DHT22;11730;51.248;22.534;2023-06-26T00:05:00;17.40;1.00
23122;DHT22;11730;51.248;22.534;2023-06-26T00:07:30;17.40;1.00
23122;DHT22;11730;51.248;22.534;2023-06-26T00:09:57;17.40;1.00
23122;DHT22;11730;51.248;22.534;2023-06-26T00:12:26;17.30;1.00
23122;DHT22;11730;51.248;22.534;2023-06-26T00:14:53;17.20;1.00
23122;DHT22;11730;51.248;22.534;2023-06-26T00:17:20;17.30;1.00
23122;DHT22;11730;51.248;22.534;2023-06-26T00:19:47;17.20;1.00
23122;DHT22;11730;51.248;22.534;2023-06-26T00:22:14;17.10;1.00
23122;DHT22;11730;51.248;22.534;2023-06-26T00:24:41;16.90;1.20
23122;DHT22;11730;51.248;22.534;2023-06-26T00:27:08;17.10;1.50
23122;DHT22;11730;51.248;22.534;2023-06-26T00:29:35;16.90;1.30
23122;DHT22;11730;51.248;22.534;2023-06-26T00:32:02;17.00;1.90
23122;DHT22;11730;51.248;22.534;2023-06-26T00:34:29;17.00;2.00
23122;DHT22;11730;51.248;22.534;2023-06-26T00:36:56;17.00;2.00
23122;DHT22;11730;51.248;22.534;2023-06-26T00:39:23;16.90;2.00
23122;DHT22;11730;51.248;22.534;2023-06-26T00:41:52;16.90;2.80
23122;DHT22;11730;51.248;22.534;2023-06-26T00:44:22;16.80;2.80
23122;DHT22;11730;51.248;22.534;2023-06-26T00:46:50;16.80;3.20
23122;DHT22;11730;51.248;22.534;2023-06-26T00:49:17;16.80;3.20
23122;DHT22;11730;51.248;22.534;2023-06-26T00:51:44;16.80;2.90
23122;DHT22;11730;51.248;22.534;2023-06-26T00:54:11;16.70;3.40
23122;DHT22;11730;51.248;22.534;2023-06-26T00:56:38;16.70;3.90
23122;DHT22;11730;51.248;22.534;2023-06-26T01:01:33;16.60;4.30
23122;DHT22;11730;51.248;22.534;2023-06-26T01:04:00;16.60;4.00
23122;DHT22;11730;51.248;22.534;2023-06-26T01:06:28;16.60;4.20
23122;DHT22;11730;51.248;22.534;2023-06-26T01:09:03;16.50;4.20
23122;DHT22;11730;51.248;22.534;2023-06-26T01:14:00;16.50;5.20
23122;DHT22;11730;51.248;22.534;2023-06-26T01:16:28;16.50;5.40
23122;DHT22;11730;51.248;22.534;2023-06-26T01:18:56;16.50;5.20
23122;DHT22;11730;51.248;22.534;2023-06-26T01:21:23;16.40;5.60
23122;DHT22;11730;51.248;22.534;2023-06-26T01:26:27;16.40;6.60
23122;DHT22;11730;51.248;22.534;2023-06-26T01:28:57;16.40;6.80
23122;DHT22;11730;51.248;22.534;2023-06-26T01:31:26;16.40;7.10
23122;DHT22;11730;51.248;22.534;2023-06-26T01:33:54;16.40;7.30
23122;DHT22;11730;51.248;22.534;2023-06-26T01:36:22;16.40;7.70
23122;DHT22;11730;51.248;22.534;2023-06-26T01:38:49;16.40;7.80
23122;DHT22;11730;51.248;22.534;2023-06-26T01:41:18;16.40;8.60
23122;DHT22;11730;51.248;22.534;2023-06-26T01:47:00;16.40;9.20
23122;DHT22;11730;51.248;22.534;2023-06-26T01:49:38;16.40;9.30
23122;DHT22;11730;51.248;22.534;2023-06-26T01:54:58;16.50;9.80
23122;DHT22;11730;51.248;22.534;2023-06-26T01:57:29;16.40;10.10
23122;DHT22;11730;51.248;22.534;2023-06-26T01:59:58;16.40;10.40
23122;DHT22;11730;51.248;22.534;2023-06-26T02:02:27;16.40;10.60
23122;DHT22;11730;51.248;22.534;2023-06-26T02:04:55;16.50;11.10
23122;DHT22;11730;51.248;22.534;2023-06-26T02:07:22;16.50;10.50
23122;DHT22;11730;51.248;22.534;2023-06-26T02:09:49;16.50;11.30
23122;DHT22;11730;51.248;22.534;2023-06-26T02:12:16;16.40;11.30
23122;DHT22;11730;51.248;22.534;2023-06-26T02:14:42;16.40;12.00
23122;DHT22;11730;51.248;22.534;2023-06-26T02:17:09;16.20;12.40
23122;DHT22;11730;51.248;22.534;2023-06-26T02:19:36;16.40;13.10
23122;DHT22;11730;51.248;22.534;2023-06-26T02:22:06;16.30;12.80
23122;DHT22;11730;51.248;22.534;2023-06-26T02:27:00;16.20;14.20
23122;DHT22;11730;51.248;22.534;2023-06-26T02:29:27;16.20;14.70
23122;DHT22;11730;51.248;22.534;2023-06-26T02:31:54;16.00;14.80
23122;DHT22;11730;51.248;22.534;2023-06-26T02:34:21;16.00;15.70
23122;DHT22;11730;51.248;22.534;2023-06-26T02:36:48;16.10;15.80
23122;DHT22;11730;51.248;22.534;2023-06-26T02:39:15;16.10;16.30
23122;DHT22;11730;51.248;22.534;2023-06-26T02:41:42;16.00;17.20
23122;DHT22;11730;51.248;22.534;2023-06-26T02:46:39;16.00;17.90
23122;DHT22;11730;51.248;22.534;2023-06-26T02:49:06;16.00;18.60
23122;DHT22;11730;51.248;22.534;2023-06-26T02:51:33;16.00;18.80
23122;DHT22;11730;51.248;22.534;2023-06-26T02:56:28;16.00;19.90
23122;DHT22;11730;51.248;22.534;2023-06-26T02:58:56;16.10;20.50
23122;DHT22;11730;51.248;22.534;2023-06-26T03:01:23;16.10;21.00
23122;DHT22;11730;51.248;22.534;2023-06-26T03:03:50;16.10;20.90
23122;DHT22;11730;51.248;22.534;2023-06-26T03:08:45;16.10;22.30
23122;DHT22;11730;51.248;22.534;2023-06-26T03:11:12;16.20;21.80
23122;DHT22;11730;51.248;22.534;2023-06-26T03:13:39;16.10;22.60
23122;DHT22;11730;51.248;22.534;2023-06-26T03:16:06;16.20;22.50
23122;DHT22;11730;51.248;22.534;2023-06-26T03:23:27;16.20;22.70
23122;DHT22;11730;51.248;22.534;2023-06-26T03:25:54;16.30;23.00
23122;DHT22;11730;51.248;22.534;2023-06-26T03:28:21;16.30;23.10
23122;DHT22;11730;51.248;22.534;2023-06-26T03:30:48;16.30;22.90
23122;DHT22;11730;51.248;22.534;2023-06-26T03:33:15;16.40;23.00
23122;DHT22;11730;51.248;22.534;2023-06-26T03:35:42;16.40;23.30
23122;DHT22;11730;51.248;22.534;2023-06-26T03:38:09;16.40;22.90
23122;DHT22;11730;51.248;22.534;2023-06-26T03:43:04;16.40;22.40
23122;DHT22;11730;51.248;22.534;2023-06-26T03:45:31;16.50;23.20
23122;DHT22;11730;51.248;22.534;2023-06-26T03:47:58;16.60;22.90
23122;DHT22;11730;51.248;22.534;2023-06-26T03:50:25;16.60;23.00
23122;DHT22;11730;51.248;22.534;2023-06-26T03:55:21;16.70;22.40
23122;DHT22;11730;51.248;22.534;2023-06-26T03:57:49;16.70;22.50
23122;DHT22;11730;51.248;22.534;2023-06-26T04:00:16;16.80;22.90
23122;DHT22;11730;51.248;22.534;2023-06-26T04:02:43;16.90;22.20
23122;DHT22;11730;51.248;22.534;2023-06-26T04:05:10;17.00;21.90
23122;DHT22;11730;51.248;22.534;2023-06-26T04:10:06;17.10;21.20
23122;DHT22;11730;51.248;22.534;2023-06-26T04:12:33;17.20;21.10
23122;DHT22;11730;51.248;22.534;2023-06-26T04:15:00;17.20;21.50
23122;DHT22;11730;51.248;22.534;2023-06-26T04:17:27;17.30;19.80
23122;DHT22;11730;51.248;22.534;2023-06-26T04:19:54;17.40;19.40
23122;DHT22;11730;51.248;22.534;2023-06-26T04:22:20;17.50;19.00
23122;DHT22;11730;51.248;22.534;2023-06-26T04:24:47;17.60;18.50
23122;DHT22;11730;51.248;22.534;2023-06-26T04:27:14;17.70;18.50
23122;DHT22;11730;51.248;22.534;2023-06-26T04:29:41;17.80;18.40
23122;DHT22;11730;51.248;22.534;2023-06-26T04:32:08;17.90;17.70
23122;DHT22;11730;51.248;22.534;2023-06-26T04:34:35;18.00;17.80
23122;DHT22;11730;51.248;22.534;2023-06-26T04:37:07;17.90;17.40
23122;DHT22;11730;51.248;22.534;2023-06-26T04:39:37;17.90;16.70
23122;DHT22;11730;51.248;22.534;2023-06-26T04:42:05;17.90;16.80
23122;DHT22;11730;51.248;22.534;2023-06-26T04:44:32;17.90;16.70
23122;DHT22;11730;51.248;22.534;2023-06-26T04:47:00;18.00;15.90
23122;DHT22;11730;51.248;22.534;2023-06-26T04:49:27;18.00;16.20
23122;DHT22;11730;51.248;22.534;2023-06-26T04:51:55;18.00;15.70
23122;DHT22;11730;51.248;22.534;2023-06-26T04:54:22;18.00;15.20
23122;DHT22;11730;51.248;22.534;2023-06-26T04:56:49;18.10;14.60
23122;DHT22;11730;51.248;22.534;2023-06-26T04:59:16;18.10;15.00
23122;DHT22;11730;51.248;22.534;2023-06-26T05:01:43;18.30;14.60
23122;DHT22;11730;51.248;22.534;2023-06-26T05:04:15;18.20;15.10
23122;DHT22;11730;51.248;22.534;2023-06-26T05:06:42;18.40;15.00
23122;DHT22;11730;51.248;22.534;2023-06-26T05:11:37;18.60;12.60
23122;DHT22;11730;51.248;22.534;2023-06-26T05:14:05;18.70;13.20
23122;DHT22;11730;51.248;22.534;2023-06-26T05:16:34;18.70;13.50
23122;DHT22;11730;51.248;22.534;2023-06-26T05:19:01;18.90;11.00
23122;DHT22;11730;51.248;22.534;2023-06-26T05:21:29;18.90;11.70
23122;DHT22;11730;51.248;22.534;2023-06-26T05:23:57;19.00;12.00
23122;DHT22;11730;51.248;22.534;2023-06-26T05:26:25;19.00;12.30
23122;DHT22;11730;51.248;22.534;2023-06-26T05:28:53;19.20;10.30
23122;DHT22;11730;51.248;22.534;2023-06-26T05:31:20;19.20;9.20
23122;DHT22;11730;51.248;22.534;2023-06-26T05:33:48;19.50;7.40
23122;DHT22;11730;51.248;22.534;2023-06-26T05:36:16;19.50;7.00
23122;DHT22;11730;51.248;22.534;2023-06-26T05:38:45;19.50;7.60
23122;DHT22;11730;51.248;22.534;2023-06-26T05:41:12;19.60;6.80
23122;DHT22;11730;51.248;22.534;2023-06-26T05:43:39;19.70;7.90
23122;DHT22;11730;51.248;22.534;2023-06-26T05:48:33;19.90;3.20
23122;DHT22;11730;51.248;22.534;2023-06-26T05:51:01;19.80;3.10
23122;DHT22;11730;51.248;22.534;2023-06-26T05:53:28;20.10;1.00
23122;DHT22;11730;51.248;22.534;2023-06-26T05:55:57;20.20;1.20
23122;DHT22;11730;51.248;22.534;2023-06-26T05:58:25;20.20;1.00
23122;DHT22;11730;51.248;22.534;2023-06-26T06:00:53;20.30;1.00
23122;DHT22;11730;51.248;22.534;2023-06-26T06:03:21;20.40;1.00
23122;DHT22;11730;51.248;22.534;2023-06-26T06:05:48;20.50;1.00
23122;DHT22;11730;51.248;22.534;2023-06-26T06:08:15;20.50;1.00
23122;DHT22;11730;51.248;22.534;2023-06-26T06:10:42;20.50;1.00
23122;DHT22;11730;51.248;22.534;2023-06-26T06:13:09;20.70;1.00
23122;DHT22;11730;51.248;22.534;2023-06-26T06:15:35;20.80;1.00
23122;DHT22;11730;51.248;22.534;2023-06-26T06:18:02;20.90;1.00
23122;DHT22;11730;51.248;22.534;2023-06-26T06:20:31;20.90;1.00
23122;DHT22;11730;51.248;22.534;2023-06-26T06:22:58;20.90;1.00
23122;DHT22;11730;51.248;22.534;2023-06-26T06:25:25;21.00;1.00
23122;DHT22;11730;51.248;22.534;2023-06-26T06:27:51;21.10;1.00
23122;DHT22;11730;51.248;22.534;2023-06-26T06:30:18;21.20;1.00
23122;DHT22;11730;51.248;22.534;2023-06-26T06:33:01;21.30;1.00
23122;DHT22;11730;51.248;22.534;2023-06-26T06:35:28;21.50;1.00
23122;DHT22;11730;51.248;22.534;2023-06-26T06:37:56;21.70;1.00
23122;DHT22;11730;51.248;22.534;2023-06-26T06:40:23;21.70;1.00
23122;DHT22;11730;51.248;22.534;2023-06-26T06:42:51;21.70;1.00
23122;DHT22;11730;51.248;22.534;2023-06-26T06:45:19;21.70;1.00
23122;DHT22;11730;51.248;22.534;2023-06-26T06:47:45;21.80;1.00
23122;DHT22;11730;51.248;22.534;2023-06-26T06:50:12;22.00;1.00
23122;DHT22;11730;51.248;22.534;2023-06-26T06:52:42;22.00;1.00
23122;DHT22;11730;51.248;22.534;2023-06-26T06:55:09;22.00;1.00
23122;DHT22;11730;51.248;22.534;2023-06-26T06:57:37;22.10;1.00
23122;DHT22;11730;51.248;22.534;2023-06-26T07:02:36;22.20;1.00
23122;DHT22;11730;51.248;22.534;2023-06-26T07:05:04;22.50;1.00
23122;DHT22;11730;51.248;22.534;2023-06-26T07:07:32;22.50;1.00
23122;DHT22;11730;51.248;22.534;2023-06-26T07:10:02;22.50;1.00
23122;DHT22;11730;51.248;22.534;2023-06-26T07:12:29;22.60;1.00
23122;DHT22;11730;51.248;22.534;2023-06-26T07:14:57;22.60;1.00
23122;DHT22;11730;51.248;22.534;2023-06-26T07:17:24;22.70;1.00
23122;DHT22;11730;51.248;22.534;2023-06-26T07:19:51;22.80;1.00
23122;DHT22;11730;51.248;22.534;2023-06-26T07:22:18;23.00;1.00
23122;DHT22;11730;51.248;22.534;2023-06-26T07:24:47;23.20;1.00
23122;DHT22;11730;51.248;22.534;2023-06-26T07:27:18;23.30;1.00
23122;DHT22;11730;51.248;22.534;2023-06-26T07:29:45;23.40;1.00
23122;DHT22;11730;51.248;22.534;2023-06-26T07:32:12;23.40;1.00
23122;DHT22;11730;51.248;22.534;2023-06-26T07:34:41;25.60;1.00
23122;DHT22;11730;51.248;22.534;2023-06-26T07:37:08;23.70;1.00
23122;DHT22;11730;51.248;22.534;2023-06-26T07:39:35;23.80;1.00
23122;DHT22;11730;51.248;22.534;2023-06-26T07:42:02;24.00;1.00
23122;DHT22;11730;51.248;22.534;2023-06-26T07:44:29;23.90;1.00
23122;DHT22;11730;51.248;22.534;2023-06-26T07:46:56;24.10;1.00
23122;DHT22;11730;51.248;22.534;2023-06-26T07:49:23;24.30;1.00
23122;DHT22;11730;51.248;22.534;2023-06-26T07:51:50;24.60;1.00
23122;DHT22;11730;51.248;22.534;2023-06-26T07:54:17;24.90;1.00
23122;DHT22;11730;51.248;22.534;2023-06-26T07:59:21;25.20;1.00
23122;DHT22;11730;51.248;22.534;2023-06-26T08:01:50;25.40;1.00
23122;DHT22;11730;51.248;22.534;2023-06-26T08:04:19;25.60;1.00
23122;DHT22;11730;51.248;22.534;2023-06-26T08:06:51;25.40;1.00
23122;DHT22;11730;51.248;22.534;2023-06-26T08:09:21;25.50;1.00
23122;DHT22;11730;51.248;22.534;2023-06-26T08:11:48;25.50;1.00
23122;DHT22;11730;51.248;22.534;2023-06-26T08:14:16;25.60;1.00
23122;DHT22;11730;51.248;22.534;2023-06-26T08:16:44;25.60;1.00
23122;DHT22;11730;51.248;22.534;2023-06-26T08:19:12;25.80;1.00
23122;DHT22;11730;51.248;22.534;2023-06-26T08:21:46;26.20;1.00
23122;DHT22;11730;51.248;22.534;2023-06-26T08:24:13;26.30;1.00
23122;DHT22;11730;51.248;22.534;2023-06-26T08:26:44;26.10;1.00
23122;DHT22;11730;51.248;22.534;2023-06-26T08:29:11;25.80;1.00
23122;DHT22;11730;51.248;22.534;2023-06-26T08:31:39;26.20;1.00
23122;DHT22;11730;51.248;22.534;2023-06-26T08:34:07;26.00;1.00
23122;DHT22;11730;51.248;22.534;2023-06-26T08:36:34;26.50;1.00
23122;DHT22;11730;51.248;22.534;2023-06-26T08:39:02;26.70;1.00
23122;DHT22;11730;51.248;22.534;2023-06-26T08:41:29;26.50;1.00
23122;DHT22;11730;51.248;22.534;2023-06-26T08:43:57;26.90;1.00
23122;DHT22;11730;51.248;22.534;2023-06-26T08:46:24;27.20;1.00
23122;DHT22;11730;51.248;22.534;2023-06-26T08:48:56;27.10;1.00
23122;DHT22;11730;51.248;22.534;2023-06-26T08:51:28;27.30;1.00
23122;DHT22;11730;51.248;22.534;2023-06-26T08:53:58;27.60;1.00
23122;DHT22;11730;51.248;22.534;2023-06-26T08:56:31;28.00;1.00
23122;DHT22;11730;51.248;22.534;2023-06-26T08:58:59;28.90;1.00
23122;DHT22;11730;51.248;22.534;2023-06-26T09:01:26;27.70;1.00
23122;DHT22;11730;51.248;22.534;2023-06-26T09:03:53;27.50;1.00
23122;DHT22;11730;51.248;22.534;2023-06-26T09:06:20;27.40;1.00
23122;DHT22;11730;51.248;22.534;2023-06-26T09:08:47;26.70;1.00
23122;DHT22;11730;51.248;22.534;2023-06-26T09:11:14;26.30;1.00
23122;DHT22;11730;51.248;22.534;2023-06-26T09:13:42;26.20;1.00
23122;DHT22;11730;51.248;22.534;2023-06-26T09:16:10;26.50;1.00
23122;DHT22;11730;51.248;22.534;2023-06-26T09:18:37;26.40;1.00
23122;DHT22;11730;51.248;22.534;2023-06-26T09:21:08;26.40;1.00
23122;DHT22;11730;51.248;22.534;2023-06-26T09:23:35;26.90;1.00
23122;DHT22;11730;51.248;22.534;2023-06-26T09:26:06;27.60;1.00
23122;DHT22;11730;51.248;22.534;2023-06-26T09:28:34;28.20;1.00
23122;DHT22;11730;51.248;22.534;2023-06-26T09:31:05;28.10;1.00
23122;DHT22;11730;51.248;22.534;2023-06-26T09:33:36;27.80;1.00
23122;DHT22;11730;51.248;22.534;2023-06-26T09:36:07;26.90;1.00
23122;DHT22;11730;51.248;22.534;2023-06-26T09:38:36;26.60;1.00
23122;DHT22;11730;51.248;22.534;2023-06-26T09:41:03;27.10;1.00
23122;DHT22;11730;51.248;22.534;2023-06-26T09:43:30;27.00;1.00
23122;DHT22;11730;51.248;22.534;2023-06-26T09:46:00;26.70;1.00
23122;DHT22;11730;51.248;22.534;2023-06-26T09:48:28;27.00;1.00
23122;DHT22;11730;51.248;22.534;2023-06-26T09:50:56;27.10;1.00
23122;DHT22;11730;51.248;22.534;2023-06-26T09:53:39;27.40;1.00
23122;DHT22;11730;51.248;22.534;2023-06-26T09:56:15;27.50;1.00
23122;DHT22;11730;51.248;22.534;2023-06-26T09:58:44;27.60;1.00
23122;DHT22;11730;51.248;22.534;2023-06-26T10:01:11;28.50;1.00
23122;DHT22;11730;51.248;22.534;2023-06-26T10:03:38;29.30;1.00
23122;DHT22;11730;51.248;22.534;2023-06-26T10:06:08;29.20;1.00
23122;DHT22;11730;51.248;22.534;2023-06-26T10:08:38;28.60;1.00
23122;DHT22;11730;51.248;22.534;2023-06-26T10:11:08;27.60;1.00
23122;DHT22;11730;51.248;22.534;2023-06-26T10:13:42;28.10;1.00
23122;DHT22;11730;51.248;22.534;2023-06-26T10:16:19;28.30;1.00
23122;DHT22;11730;51.248;22.534;2023-06-26T10:19:00;29.80;1.00
23122;DHT22;11730;51.248;22.534;2023-06-26T10:21:29;29.60;1.00
23122;DHT22;11730;51.248;22.534;2023-06-26T10:23:58;29.60;1.00
23122;DHT22;11730;51.248;22.534;2023-06-26T10:26:26;30.30;1.00
23122;DHT22;11730;51.248;22.534;2023-06-26T10:28:55;31.70;1.00
23122;DHT22;11730;51.248;22.534;2023-06-26T10:31:26;30.80;1.00
23122;DHT22;11730;51.248;22.534;2023-06-26T10:33:55;30.80;1.00
23122;DHT22;11730;51.248;22.534;2023-06-26T10:36:31;30.80;1.00
23122;DHT22;11730;51.248;22.534;2023-06-26T10:39:03;31.40;1.00
23122;DHT22;11730;51.248;22.534;2023-06-26T10:41:39;30.60;1.00
23122;DHT22;11730;51.248;22.534;2023-06-26T10:44:26;31.60;1.00
23122;DHT22;11730;51.248;22.534;2023-06-26T10:46:54;31.40;1.00
23122;DHT22;11730;51.248;22.534;2023-06-26T10:49:29;31.70;1.00
23122;DHT22;11730;51.248;22.534;2023-06-26T10:52:01;30.50;1.00
23122;DHT22;11730;51.248;22.534;2023-06-26T10:54:31;30.90;1.00
23122;DHT22;11730;51.248;22.534;2023-06-26T10:56:58;31.40;1.00
23122;DHT22;11730;51.248;22.534;2023-06-26T10:59:26;31.20;1.00
23122;DHT22;11730;51.248;22.534;2023-06-26T11:02:02;30.90;1.00
23122;DHT22;11730;51.248;22.534;2023-06-26T11:04:38;31.40;1.00
23122;DHT22;11730;51.248;22.534;2023-06-26T11:12:41;31.60;1.00
23122;DHT22;11730;51.248;22.534;2023-06-26T11:15:16;32.90;1.00
23122;DHT22;11730;51.248;22.534;2023-06-26T11:17:44;32.70;1.00
23122;DHT22;11730;51.248;22.534;2023-06-26T11:20:13;33.50;1.00
23122;DHT22;11730;51.248;22.534;2023-06-26T11:22:42;32.10;1.00
23122;DHT22;11730;51.248;22.534;2023-06-26T11:25:10;32.60;1.00
23122;DHT22;11730;51.248;22.534;2023-06-26T11:30:06;32.80;1.00
23122;DHT22;11730;51.248;22.534;2023-06-26T11:32:33;33.40;1.00
23122;DHT22;11730;51.248;22.534;2023-06-26T11:35:00;32.10;1.00
23122;DHT22;11730;51.248;22.534;2023-06-26T11:37:27;30.60;1.00
23122;DHT22;11730;51.248;22.534;2023-06-26T11:39:54;29.90;1.00
23122;DHT22;11730;51.248;22.534;2023-06-26T11:42:21;29.00;1.00
23122;DHT22;11730;51.248;22.534;2023-06-26T11:44:48;28.20;1.00
23122;DHT22;11730;51.248;22.534;2023-06-26T11:47:20;28.20;1.00
23122;DHT22;11730;51.248;22.534;2023-06-26T11:49:49;29.10;1.00
23122;DHT22;11730;51.248;22.534;2023-06-26T11:52:16;29.70;1.00
23122;DHT22;11730;51.248;22.534;2023-06-26T11:54:43;29.90;1.00
23122;DHT22;11730;51.248;22.534;2023-06-26T11:57:14;29.80;1.00
23122;DHT22;11730;51.248;22.534;2023-06-26T11:59:41;30.50;1.00
23122;DHT22;11730;51.248;22.534;2023-06-26T12:02:14;31.70;1.00
23122;DHT22;11730;51.248;22.534;2023-06-26T12:04:42;31.10;1.00
23122;DHT22;11730;51.248;22.534;2023-06-26T12:07:10;29.70;1.00
23122;DHT22;11730;51.248;22.534;2023-06-26T12:09:41;29.30;1.00
23122;DHT22;11730;51.248;22.534;2023-06-26T12:12:10;30.20;1.00
23122;DHT22;11730;51.248;22.534;2023-06-26T12:14:37;30.90;1.00
23122;DHT22;11730;51.248;22.534;2023-06-26T12:17:07;30.90;1.00
23122;DHT22;11730;51.248;22.534;2023-06-26T12:19:37;29.80;1.00
23122;DHT22;11730;51.248;22.534;2023-06-26T12:22:08;30.00;1.00
23122;DHT22;11730;51.248;22.534;2023-06-26T12:24:39;30.00;1.00
23122;DHT22;11730;51.248;22.534;2023-06-26T12:27:10;30.30;1.00
23122;DHT22;11730;51.248;22.534;2023-06-26T12:29:39;30.60;1.00
23122;DHT22;11730;51.248;22.534;2023-06-26T12:32:10;30.70;1.00
23122;DHT22;11730;51.248;22.534;2023-06-26T12:34:38;30.60;1.00
23122;DHT22;11730;51.248;22.534;2023-06-26T12:37:10;29.80;1.00
23122;DHT22;11730;51.248;22.534;2023-06-26T12:39:57;29.80;1.00
23122;DHT22;11730;51.248;22.534;2023-06-26T12:42:25;29.70;1.00
23122;DHT22;11730;51.248;22.534;2023-06-26T12:44:53;31.10;1.00
23122;DHT22;11730;51.248;22.534;2023-06-26T12:47:28;30.70;1.00
23122;DHT22;11730;51.248;22.534;2023-06-26T12:49:57;30.70;1.00
23122;DHT22;11730;51.248;22.534;2023-06-26T12:52:24;30.40;1.00
23122;DHT22;11730;51.248;22.534;2023-06-26T12:54:53;30.50;1.00
23122;DHT22;11730;51.248;22.534;2023-06-26T12:57:20;30.20;1.00
23122;DHT22;11730;51.248;22.534;2023-06-26T12:59:47;30.60;1.00
23122;DHT22;11730;51.248;22.534;2023-06-26T13:02:14;30.60;1.00
23122;DHT22;11730;51.248;22.534;2023-06-26T13:04:41;29.90;1.00
23122;DHT22;11730;51.248;22.534;2023-06-26T13:07:11;29.10;1.00
23122;DHT22;11730;51.248;22.534;2023-06-26T13:09:38;29.20;1.00
23122;DHT22;11730;51.248;22.534;2023-06-26T13:12:06;29.40;1.00
23122;DHT22;11730;51.248;22.534;2023-06-26T13:14:34;30.30;1.00
23122;DHT22;11730;51.248;22.534;2023-06-26T13:17:01;30.60;1.00
23122;DHT22;11730;51.248;22.534;2023-06-26T13:19:29;31.00;1.00
23122;DHT22;11730;51.248;22.534;2023-06-26T13:21:56;30.50;1.00
23122;DHT22;11730;51.248;22.534;2023-06-26T13:24:23;30.90;1.00
23122;DHT22;11730;51.248;22.534;2023-06-26T13:26:50;30.50;1.00
23122;DHT22;11730;51.248;22.534;2023-06-26T13:29:17;30.50;1.00
23122;DHT22;11730;51.248;22.534;2023-06-26T13:31:44;31.10;1.00
23122;DHT22;11730;51.248;22.534;2023-06-26T13:34:23;30.90;1.00
23122;DHT22;11730;51.248;22.534;2023-06-26T13:36:50;30.40;1.00
23122;DHT22;11730;51.248;22.534;2023-06-26T13:39:17;30.40;1.00
23122;DHT22;11730;51.248;22.534;2023-06-26T13:41:45;30.00;1.00
23122;DHT22;11730;51.248;22.534;2023-06-26T13:44:12;29.80;1.00
23122;DHT22;11730;51.248;22.534;2023-06-26T13:46:59;29.70;1.00
23122;DHT22;11730;51.248;22.534;2023-06-26T13:49:26;30.10;1.00
23122;DHT22;11730;51.248;22.534;2023-06-26T13:51:52;30.10;1.00
23122;DHT22;11730;51.248;22.534;2023-06-26T13:54:19;30.30;1.00
23122;DHT22;11730;51.248;22.534;2023-06-26T13:56:46;30.50;1.00
23122;DHT22;11730;51.248;22.534;2023-06-26T13:59:13;30.30;1.00
23122;DHT22;11730;51.248;22.534;2023-06-26T14:01:41;30.30;1.00
23122;DHT22;11730;51.248;22.534;2023-06-26T14:04:11;30.30;1.00
23122;DHT22;11730;51.248;22.534;2023-06-26T14:06:38;30.10;1.00
23122;DHT22;11730;51.248;22.534;2023-06-26T14:09:05;30.70;1.00
23122;DHT22;11730;51.248;22.534;2023-06-26T14:11:34;30.50;1.00
23122;DHT22;11730;51.248;22.534;2023-06-26T14:14:02;30.50;1.00
23122;DHT22;11730;51.248;22.534;2023-06-26T14:16:29;30.40;1.00
23122;DHT22;11730;51.248;22.534;2023-06-26T14:18:56;30.40;1.00
23122;DHT22;11730;51.248;22.534;2023-06-26T14:21:23;30.20;1.00
23122;DHT22;11730;51.248;22.534;2023-06-26T14:23:50;30.10;1.00
23122;DHT22;11730;51.248;22.534;2023-06-26T14:26:17;30.20;1.00
23122;DHT22;11730;51.248;22.534;2023-06-26T14:28:44;30.10;1.00
23122;DHT22;11730;51.248;22.534;2023-06-26T14:31:12;30.70;1.00
23122;DHT22;11730;51.248;22.534;2023-06-26T14:33:39;30.50;1.00
23122;DHT22;11730;51.248;22.534;2023-06-26T14:36:06;30.60;1.00
23122;DHT22;11730;51.248;22.534;2023-06-26T14:38:33;30.50;1.00
23122;DHT22;11730;51.248;22.534;2023-06-26T14:41:00;30.10;1.00
23122;DHT22;11730;51.248;22.534;2023-06-26T14:43:27;30.10;1.00
23122;DHT22;11730;51.248;22.534;2023-06-26T14:45:55;30.10;1.00
23122;DHT22;11730;51.248;22.534;2023-06-26T14:48:22;29.80;1.00
23122;DHT22;11730;51.248;22.534;2023-06-26T14:50:49;29.80;1.00
23122;DHT22;11730;51.248;22.534;2023-06-26T14:53:16;29.70;1.00
23122;DHT22;11730;51.248;22.534;2023-06-26T14:55:43;29.50;1.00
23122;DHT22;11730;51.248;22.534;2023-06-26T14:58:10;29.40;1.00
23122;DHT22;11730;51.248;22.534;2023-06-26T15:00:37;29.70;1.00
23122;DHT22;11730;51.248;22.534;2023-06-26T15:03:04;29.70;1.00
23122;DHT22;11730;51.248;22.534;2023-06-26T15:05:31;29.60;1.00
23122;DHT22;11730;51.248;22.534;2023-06-26T15:07:59;29.70;1.00
23122;DHT22;11730;51.248;22.534;2023-06-26T15:10:26;29.70;1.00
23122;DHT22;11730;51.248;22.534;2023-06-26T15:13:01;29.80;1.00
23122;DHT22;11730;51.248;22.534;2023-06-26T15:15:28;30.00;1.00
23122;DHT22;11730;51.248;22.534;2023-06-26T15:17:55;29.90;1.00
23122;DHT22;11730;51.248;22.534;2023-06-26T15:20:22;29.70;1.00
23122;DHT22;11730;51.248;22.534;2023-06-26T15:22:49;29.70;1.00
23122;DHT22;11730;51.248;22.534;2023-06-26T15:25:15;29.30;1.00
23122;DHT22;11730;51.248;22.534;2023-06-26T15:27:42;29.10;1.00
23122;DHT22;11730;51.248;22.534;2023-06-26T15:30:10;29.40;1.00
23122;DHT22;11730;51.248;22.534;2023-06-26T15:32:37;29.10;1.00
23122;DHT22;11730;51.248;22.534;2023-06-26T15:35:04;28.80;1.00
23122;DHT22;11730;51.248;22.534;2023-06-26T15:39:58;28.70;1.00
23122;DHT22;11730;51.248;22.534;2023-06-26T15:42:27;28.80;1.00
23122;DHT22;11730;51.248;22.534;2023-06-26T15:44:55;28.90;1.00
23122;DHT22;11730;51.248;22.534;2023-06-26T15:47:22;28.80;1.00
23122;DHT22;11730;51.248;22.534;2023-06-26T15:49:49;28.60;1.00
23122;DHT22;11730;51.248;22.534;2023-06-26T15:52:16;28.60;1.00
23122;DHT22;11730;51.248;22.534;2023-06-26T15:54:43;28.50;1.00
23122;DHT22;11730;51.248;22.534;2023-06-26T15:57:10;28.10;1.00
23122;DHT22;11730;51.248;22.534;2023-06-26T16:02:04;27.80;1.00
23122;DHT22;11730;51.248;22.534;2023-06-26T16:06:59;27.80;1.00
23122;DHT22;11730;51.248;22.534;2023-06-26T16:09:26;27.70;1.00
23122;DHT22;11730;51.248;22.534;2023-06-26T16:11:53;27.80;1.00
23122;DHT22;11730;51.248;22.534;2023-06-26T16:14:20;27.80;1.00
23122;DHT22;11730;51.248;22.534;2023-06-26T16:16:48;27.70;1.00
23122;DHT22;11730;51.248;22.534;2023-06-26T16:19:15;27.50;1.00
23122;DHT22;11730;51.248;22.534;2023-06-26T16:21:41;27.50;1.00
23122;DHT22;11730;51.248;22.534;2023-06-26T16:24:08;27.20;1.00
23122;DHT22;11730;51.248;22.534;2023-06-26T16:26:35;27.10;1.00
23122;DHT22;11730;51.248;22.534;2023-06-26T16:29:03;26.90;1.00
23122;DHT22;11730;51.248;22.534;2023-06-26T16:31:30;26.70;1.00
23122;DHT22;11730;51.248;22.534;2023-06-26T16:33:57;26.70;1.00